sensor_id;sensor_type;location;lat;lon;timestamp;temperature;humidity
71837;DHT22;59686;51.716;7.016;2023-04-25T00:02:24;11.90;74.60
71837;DHT22;59686;51.716;7.016;2023-04-25T00:04:50;12.00;74.70
71837;DHT22;59686;51.716;7.016;2023-04-25T00:07:15;11.90;74.60
71837;DHT22;59686;51.716;7.016;2023-04-25T00:09:42;12.00;74.80
71837;DHT22;59686;51.716;7.016;2023-04-25T00:12:08;11.90;74.70
71837;DHT22;59686;51.716;7.016;2023-04-25T00:14:34;11.90;74.70
71837;DHT22;59686;51.716;7.016;2023-04-25T00:17:01;12.00;74.60
71837;DHT22;59686;51.716;7.016;2023-04-25T00:19:27;11.90;74.50
71837;DHT22;59686;51.716;7.016;2023-04-25T00:21:55;11.90;74.70
71837;DHT22;59686;51.716;7.016;2023-04-25T00:24:20;12.00;74.80
71837;DHT22;59686;51.716;7.016;2023-04-25T00:26:46;11.90;74.80
71837;DHT22;59686;51.716;7.016;2023-04-25T00:29:12;12.00;74.90
71837;DHT22;59686;51.716;7.016;2023-04-25T00:31:39;12.00;74.90
71837;DHT22;59686;51.716;7.016;2023-04-25T00:34:06;11.90;74.90
71837;DHT22;59686;51.716;7.016;2023-04-25T00:36:32;11.80;74.90
71837;DHT22;59686;51.716;7.016;2023-04-25T00:38:58;11.80;75.10
71837;DHT22;59686;51.716;7.016;2023-04-25T00:41:25;12.00;75.10
71837;DHT22;59686;51.716;7.016;2023-04-25T00:43:54;11.90;75.10
71837;DHT22;59686;51.716;7.016;2023-04-25T00:46:20;11.80;75.10
71837;DHT22;59686;51.716;7.016;2023-04-25T00:48:46;11.80;75.10
71837;DHT22;59686;51.716;7.016;2023-04-25T00:51:16;11.80;75.20
71837;DHT22;59686;51.716;7.016;2023-04-25T00:53:41;11.80;75.30
71837;DHT22;59686;51.716;7.016;2023-04-25T00:56:07;11.80;75.40
71837;DHT22;59686;51.716;7.016;2023-04-25T00:58:38;11.80;75.50
71837;DHT22;59686;51.716;7.016;2023-04-25T01:01:06;11.80;75.50
71837;DHT22;59686;51.716;7.016;2023-04-25T01:03:33;11.80;75.50
71837;DHT22;59686;51.716;7.016;2023-04-25T01:06:02;11.70;75.50
71837;DHT22;59686;51.716;7.016;2023-04-25T01:08:40;11.80;75.60
71837;DHT22;59686;51.716;7.016;2023-04-25T01:11:06;11.80;75.70
71837;DHT22;59686;51.716;7.016;2023-04-25T01:13:32;11.70;75.70
71837;DHT22;59686;51.716;7.016;2023-04-25T01:15:59;11.70;75.70
71837;DHT22;59686;51.716;7.016;2023-04-25T01:18:25;11.70;76.60
71837;DHT22;59686;51.716;7.016;2023-04-25T01:20:52;11.70;75.80
71837;DHT22;59686;51.716;7.016;2023-04-25T01:23:25;11.70;75.80
71837;DHT22;59686;51.716;7.016;2023-04-25T01:25:51;11.70;75.90
71837;DHT22;59686;51.716;7.016;2023-04-25T01:28:17;11.80;76.00
71837;DHT22;59686;51.716;7.016;2023-04-25T01:30:43;11.60;75.90
71837;DHT22;59686;51.716;7.016;2023-04-25T01:33:09;11.80;76.00
71837;DHT22;59686;51.716;7.016;2023-04-25T01:35:35;11.70;76.10
71837;DHT22;59686;51.716;7.016;2023-04-25T01:38:01;11.70;76.20
71837;DHT22;59686;51.716;7.016;2023-04-25T01:40:27;11.80;76.30
71837;DHT22;59686;51.716;7.016;2023-04-25T01:42:53;11.70;76.20
71837;DHT22;59686;51.716;7.016;2023-04-25T01:45:19;11.80;76.20
71837;DHT22;59686;51.716;7.016;2023-04-25T01:47:45;11.70;76.30
71837;DHT22;59686;51.716;7.016;2023-04-25T01:50:15;11.70;76.30
71837;DHT22;59686;51.716;7.016;2023-04-25T01:52:41;11.70;76.40
71837;DHT22;59686;51.716;7.016;2023-04-25T01:55:07;11.70;76.40
71837;DHT22;59686;51.716;7.016;2023-04-25T01:57:33;11.70;76.50
71837;DHT22;59686;51.716;7.016;2023-04-25T02:00:01;11.80;76.50
71837;DHT22;59686;51.716;7.016;2023-04-25T02:02:28;11.70;76.50
71837;DHT22;59686;51.716;7.016;2023-04-25T02:04:54;11.60;76.60
71837;DHT22;59686;51.716;7.016;2023-04-25T02:07:20;11.60;76.60
71837;DHT22;59686;51.716;7.016;2023-04-25T02:09:49;11.70;76.70
71837;DHT22;59686;51.716;7.016;2023-04-25T02:12:14;11.70;76.70
71837;DHT22;59686;51.716;7.016;2023-04-25T02:14:40;11.60;76.80
71837;DHT22;59686;51.716;7.016;2023-04-25T02:17:06;11.60;76.80
71837;DHT22;59686;51.716;7.016;2023-04-25T02:19:32;11.60;76.80
71837;DHT22;59686;51.716;7.016;2023-04-25T02:21:58;11.60;76.80
71837;DHT22;59686;51.716;7.016;2023-04-25T02:24:23;11.50;76.70
71837;DHT22;59686;51.716;7.016;2023-04-25T02:26:49;11.60;76.90
71837;DHT22;59686;51.716;7.016;2023-04-25T02:29:15;11.60;76.80
71837;DHT22;59686;51.716;7.016;2023-04-25T02:31:41;11.60;76.90
71837;DHT22;59686;51.716;7.016;2023-04-25T02:34:07;11.60;76.90
71837;DHT22;59686;51.716;7.016;2023-04-25T02:36:32;11.60;77.00
71837;DHT22;59686;51.716;7.016;2023-04-25T02:39:00;11.60;77.00
71837;DHT22;59686;51.716;7.016;2023-04-25T02:41:27;11.60;77.10
71837;DHT22;59686;51.716;7.016;2023-04-25T02:43:52;11.60;77.10
71837;DHT22;59686;51.716;7.016;2023-04-25T02:46:18;11.60;77.10
71837;DHT22;59686;51.716;7.016;2023-04-25T02:48:44;11.60;77.10
71837;DHT22;59686;51.716;7.016;2023-04-25T02:51:09;11.50;77.10
71837;DHT22;59686;51.716;7.016;2023-04-25T02:53:35;11.70;77.20
71837;DHT22;59686;51.716;7.016;2023-04-25T02:56:01;11.60;77.20
71837;DHT22;59686;51.716;7.016;2023-04-25T02:58:27;11.60;77.20
71837;DHT22;59686;51.716;7.016;2023-04-25T03:00:53;11.60;77.20
71837;DHT22;59686;51.716;7.016;2023-04-25T03:03:18;11.50;77.10
71837;DHT22;59686;51.716;7.016;2023-04-25T03:05:50;11.50;77.20
71837;DHT22;59686;51.716;7.016;2023-04-25T03:08:20;11.50;77.40
71837;DHT22;59686;51.716;7.016;2023-04-25T03:10:46;11.50;77.50
71837;DHT22;59686;51.716;7.016;2023-04-25T03:13:11;11.50;77.50
71837;DHT22;59686;51.716;7.016;2023-04-25T03:15:38;11.50;77.40
71837;DHT22;59686;51.716;7.016;2023-04-25T03:18:04;11.50;77.60
71837;DHT22;59686;51.716;7.016;2023-04-25T03:20:29;11.50;77.50
71837;DHT22;59686;51.716;7.016;2023-04-25T03:22:56;11.50;77.60
71837;DHT22;59686;51.716;7.016;2023-04-25T03:25:22;11.50;77.60
71837;DHT22;59686;51.716;7.016;2023-04-25T03:27:50;11.50;77.50
71837;DHT22;59686;51.716;7.016;2023-04-25T03:30:15;11.50;77.50
71837;DHT22;59686;51.716;7.016;2023-04-25T03:32:41;11.50;77.50
71837;DHT22;59686;51.716;7.016;2023-04-25T03:35:07;11.50;77.50
71837;DHT22;59686;51.716;7.016;2023-04-25T03:37:32;11.40;77.40
71837;DHT22;59686;51.716;7.016;2023-04-25T03:39:58;11.50;77.40
71837;DHT22;59686;51.716;7.016;2023-04-25T03:42:24;11.50;77.50
71837;DHT22;59686;51.716;7.016;2023-04-25T03:44:51;11.40;77.40
71837;DHT22;59686;51.716;7.016;2023-04-25T03:47:16;11.30;77.30
71837;DHT22;59686;51.716;7.016;2023-04-25T03:49:42;11.30;77.30
71837;DHT22;59686;51.716;7.016;2023-04-25T03:52:08;11.40;77.40
71837;DHT22;59686;51.716;7.016;2023-04-25T03:54:33;11.40;77.40
71837;DHT22;59686;51.716;7.016;2023-04-25T03:56:59;11.40;77.50
71837;DHT22;59686;51.716;7.016;2023-04-25T03:59:25;11.40;77.50
71837;DHT22;59686;51.716;7.016;2023-04-25T04:01:52;11.40;77.60
71837;DHT22;59686;51.716;7.016;2023-04-25T04:04:17;11.40;77.60
71837;DHT22;59686;51.716;7.016;2023-04-25T04:06:43;11.40;77.40
71837;DHT22;59686;51.716;7.016;2023-04-25T04:09:09;11.40;77.50
71837;DHT22;59686;51.716;7.016;2023-04-25T04:11:37;11.30;78.10
71837;DHT22;59686;51.716;7.016;2023-04-25T04:14:05;11.40;77.50
71837;DHT22;59686;51.716;7.016;2023-04-25T04:16:31;11.40;77.50
71837;DHT22;59686;51.716;7.016;2023-04-25T04:18:58;11.40;77.50
71837;DHT22;59686;51.716;7.016;2023-04-25T04:21:23;11.40;77.60
71837;DHT22;59686;51.716;7.016;2023-04-25T04:23:49;11.40;77.60
71837;DHT22;59686;51.716;7.016;2023-04-25T04:26:15;11.30;77.60
71837;DHT22;59686;51.716;7.016;2023-04-25T04:28:43;11.40;77.60
71837;DHT22;59686;51.716;7.016;2023-04-25T04:31:10;11.40;77.70
71837;DHT22;59686;51.716;7.016;2023-04-25T04:33:37;11.40;77.70
71837;DHT22;59686;51.716;7.016;2023-04-25T04:36:03;11.30;77.70
71837;DHT22;59686;51.716;7.016;2023-04-25T04:38:29;11.30;77.70
71837;DHT22;59686;51.716;7.016;2023-04-25T04:40:55;11.20;77.60
71837;DHT22;59686;51.716;7.016;2023-04-25T04:43:21;11.30;77.70
71837;DHT22;59686;51.716;7.016;2023-04-25T04:45:48;11.40;77.70
71837;DHT22;59686;51.716;7.016;2023-04-25T04:48:14;11.20;77.60
71837;DHT22;59686;51.716;7.016;2023-04-25T04:50:40;11.30;77.60
71837;DHT22;59686;51.716;7.016;2023-04-25T04:53:06;11.30;77.70
71837;DHT22;59686;51.716;7.016;2023-04-25T04:55:50;11.30;77.70
71837;DHT22;59686;51.716;7.016;2023-04-25T04:58:16;11.20;77.60
71837;DHT22;59686;51.716;7.016;2023-04-25T05:00:41;11.30;77.70
71837;DHT22;59686;51.716;7.016;2023-04-25T05:03:07;11.30;77.70
71837;DHT22;59686;51.716;7.016;2023-04-25T05:05:33;11.20;77.70
71837;DHT22;59686;51.716;7.016;2023-04-25T05:07:59;11.30;77.70
71837;DHT22;59686;51.716;7.016;2023-04-25T05:10:25;11.20;77.70
71837;DHT22;59686;51.716;7.016;2023-04-25T05:12:51;11.30;77.80
71837;DHT22;59686;51.716;7.016;2023-04-25T05:15:17;11.30;77.80
71837;DHT22;59686;51.716;7.016;2023-04-25T05:17:42;11.20;77.80
71837;DHT22;59686;51.716;7.016;2023-04-25T05:20:09;11.20;77.80
71837;DHT22;59686;51.716;7.016;2023-04-25T05:22:35;11.20;77.90
71837;DHT22;59686;51.716;7.016;2023-04-25T05:25:01;11.20;77.90
71837;DHT22;59686;51.716;7.016;2023-04-25T05:27:26;11.30;77.90
71837;DHT22;59686;51.716;7.016;2023-04-25T05:29:52;11.20;77.90
71837;DHT22;59686;51.716;7.016;2023-04-25T05:32:18;11.20;78.00
71837;DHT22;59686;51.716;7.016;2023-04-25T05:34:43;11.20;78.00
71837;DHT22;59686;51.716;7.016;2023-04-25T05:37:09;11.20;78.10
71837;DHT22;59686;51.716;7.016;2023-04-25T05:39:35;11.30;78.20
71837;DHT22;59686;51.716;7.016;2023-04-25T05:42:01;11.20;78.20
71837;DHT22;59686;51.716;7.016;2023-04-25T05:44:27;11.20;78.20
71837;DHT22;59686;51.716;7.016;2023-04-25T05:46:53;11.20;78.20
71837;DHT22;59686;51.716;7.016;2023-04-25T05:49:20;11.20;78.30
71837;DHT22;59686;51.716;7.016;2023-04-25T05:51:56;11.20;78.30
71837;DHT22;59686;51.716;7.016;2023-04-25T05:54:22;11.10;78.20
71837;DHT22;59686;51.716;7.016;2023-04-25T05:56:47;11.20;78.40
71837;DHT22;59686;51.716;7.016;2023-04-25T05:59:13;11.20;78.30
71837;DHT22;59686;51.716;7.016;2023-04-25T06:01:38;11.20;78.40
71837;DHT22;59686;51.716;7.016;2023-04-25T06:04:06;11.10;78.40
71837;DHT22;59686;51.716;7.016;2023-04-25T06:06:32;11.20;78.40
71837;DHT22;59686;51.716;7.016;2023-04-25T06:08:57;11.20;78.40
71837;DHT22;59686;51.716;7.016;2023-04-25T06:11:23;11.20;78.50
71837;DHT22;59686;51.716;7.016;2023-04-25T06:13:49;11.20;78.50
71837;DHT22;59686;51.716;7.016;2023-04-25T06:16:14;11.10;78.50
71837;DHT22;59686;51.716;7.016;2023-04-25T06:18:40;11.10;78.50
71837;DHT22;59686;51.716;7.016;2023-04-25T06:21:06;11.10;78.50
71837;DHT22;59686;51.716;7.016;2023-04-25T06:23:32;11.20;78.50
71837;DHT22;59686;51.716;7.016;2023-04-25T06:25:57;11.20;78.60
71837;DHT22;59686;51.716;7.016;2023-04-25T06:28:23;11.10;79.30
71837;DHT22;59686;51.716;7.016;2023-04-25T06:30:50;11.10;78.60
71837;DHT22;59686;51.716;7.016;2023-04-25T06:33:15;11.10;78.60
71837;DHT22;59686;51.716;7.016;2023-04-25T06:35:41;11.10;78.50
71837;DHT22;59686;51.716;7.016;2023-04-25T06:38:08;11.20;78.40
71837;DHT22;59686;51.716;7.016;2023-04-25T06:40:34;11.20;78.50
71837;DHT22;59686;51.716;7.016;2023-04-25T06:42:59;11.10;78.50
71837;DHT22;59686;51.716;7.016;2023-04-25T06:45:25;11.10;78.40
71837;DHT22;59686;51.716;7.016;2023-04-25T06:47:52;11.10;78.50
71837;DHT22;59686;51.716;7.016;2023-04-25T06:50:17;11.10;78.50
71837;DHT22;59686;51.716;7.016;2023-04-25T06:52:43;11.10;78.30
71837;DHT22;59686;51.716;7.016;2023-04-25T06:55:09;11.10;78.30
71837;DHT22;59686;51.716;7.016;2023-04-25T06:57:35;11.10;78.40
71837;DHT22;59686;51.716;7.016;2023-04-25T07:00:05;11.10;78.40
71837;DHT22;59686;51.716;7.016;2023-04-25T07:02:33;11.10;78.30
71837;DHT22;59686;51.716;7.016;2023-04-25T07:04:59;11.10;78.30
71837;DHT22;59686;51.716;7.016;2023-04-25T07:07:26;11.10;79.20
71837;DHT22;59686;51.716;7.016;2023-04-25T07:09:52;11.10;78.40
71837;DHT22;59686;51.716;7.016;2023-04-25T07:12:18;11.20;78.40
71837;DHT22;59686;51.716;7.016;2023-04-25T13:47:17;12.20;65.80
71837;DHT22;59686;51.716;7.016;2023-04-25T13:49:43;12.20;66.30
71837;DHT22;59686;51.716;7.016;2023-04-25T13:52:08;12.30;66.40
71837;DHT22;59686;51.716;7.016;2023-04-25T13:54:34;12.30;66.10
71837;DHT22;59686;51.716;7.016;2023-04-25T13:57:00;12.30;66.00
71837;DHT22;59686;51.716;7.016;2023-04-25T13:59:27;12.40;65.70
71837;DHT22;59686;51.716;7.016;2023-04-25T14:01:52;12.50;65.60
71837;DHT22;59686;51.716;7.016;2023-04-25T14:04:18;12.50;65.40
71837;DHT22;59686;51.716;7.016;2023-04-25T14:06:48;12.50;65.30
71837;DHT22;59686;51.716;7.016;2023-04-25T14:09:13;12.60;65.50
71837;DHT22;59686;51.716;7.016;2023-04-25T14:11:40;12.50;64.90
71837;DHT22;59686;51.716;7.016;2023-04-25T14:14:06;12.50;64.70
71837;DHT22;59686;51.716;7.016;2023-04-25T14:16:32;12.50;64.50
71837;DHT22;59686;51.716;7.016;2023-04-25T14:18:58;12.50;64.40
71837;DHT22;59686;51.716;7.016;2023-04-25T14:21:24;12.50;64.50
71837;DHT22;59686;51.716;7.016;2023-04-25T14:23:49;12.50;64.70
71837;DHT22;59686;51.716;7.016;2023-04-25T14:26:15;12.50;65.30
71837;DHT22;59686;51.716;7.016;2023-04-25T14:28:41;12.40;65.30
71837;DHT22;59686;51.716;7.016;2023-04-25T14:31:17;12.30;65.40
71837;DHT22;59686;51.716;7.016;2023-04-25T14:33:43;12.30;65.60
71837;DHT22;59686;51.716;7.016;2023-04-25T14:36:09;12.40;65.50
71837;DHT22;59686;51.716;7.016;2023-04-25T14:38:36;12.40;65.80
71837;DHT22;59686;51.716;7.016;2023-04-25T14:41:03;12.20;65.60
71837;DHT22;59686;51.716;7.016;2023-04-25T14:43:28;12.30;64.90
71837;DHT22;59686;51.716;7.016;2023-04-25T14:45:54;12.30;65.00
71837;DHT22;59686;51.716;7.016;2023-04-25T14:48:20;12.30;64.70
71837;DHT22;59686;51.716;7.016;2023-04-25T14:50:46;12.40;65.60
71837;DHT22;59686;51.716;7.016;2023-04-25T14:53:12;12.30;65.30
71837;DHT22;59686;51.716;7.016;2023-04-25T14:55:38;12.50;65.30
71837;DHT22;59686;51.716;7.016;2023-04-25T14:58:04;12.60;65.30
71837;DHT22;59686;51.716;7.016;2023-04-25T15:00:30;12.70;65.20
71837;DHT22;59686;51.716;7.016;2023-04-25T15:02:57;12.70;65.20
71837;DHT22;59686;51.716;7.016;2023-04-25T15:05:42;12.70;65.30
71837;DHT22;59686;51.716;7.016;2023-04-25T15:08:08;12.80;65.30
71837;DHT22;59686;51.716;7.016;2023-04-25T15:10:34;12.80;65.30
71837;DHT22;59686;51.716;7.016;2023-04-25T15:13:00;12.80;65.40
71837;DHT22;59686;51.716;7.016;2023-04-25T15:15:27;12.70;65.50
71837;DHT22;59686;51.716;7.016;2023-04-25T15:17:53;12.70;65.90
71837;DHT22;59686;51.716;7.016;2023-04-25T15:20:20;12.60;65.90
71837;DHT22;59686;51.716;7.016;2023-04-25T15:22:46;12.60;65.50
71837;DHT22;59686;51.716;7.016;2023-04-25T15:25:15;12.60;65.60
71837;DHT22;59686;51.716;7.016;2023-04-25T15:27:43;12.70;65.10
71837;DHT22;59686;51.716;7.016;2023-04-25T15:30:11;12.60;65.00
71837;DHT22;59686;51.716;7.016;2023-04-25T15:32:50;12.60;65.80
71837;DHT22;59686;51.716;7.016;2023-04-25T15:35:16;12.60;66.70
71837;DHT22;59686;51.716;7.016;2023-04-25T15:37:41;12.60;67.40
71837;DHT22;59686;51.716;7.016;2023-04-25T15:40:14;12.60;66.60
71837;DHT22;59686;51.716;7.016;2023-04-25T15:42:42;12.60;66.90
71837;DHT22;59686;51.716;7.016;2023-04-25T15:45:10;12.60;66.70
71837;DHT22;59686;51.716;7.016;2023-04-25T15:47:37;12.60;66.90
71837;DHT22;59686;51.716;7.016;2023-04-25T15:50:07;12.60;66.00
71837;DHT22;59686;51.716;7.016;2023-04-25T15:52:35;12.60;65.20
71837;DHT22;59686;51.716;7.016;2023-04-25T15:55:01;12.80;65.80
71837;DHT22;59686;51.716;7.016;2023-04-25T15:57:27;12.70;66.70
71837;DHT22;59686;51.716;7.016;2023-04-25T16:00:00;12.80;65.80
71837;DHT22;59686;51.716;7.016;2023-04-25T16:02:27;12.70;65.60
71837;DHT22;59686;51.716;7.016;2023-04-25T16:04:54;12.70;65.00
71837;DHT22;59686;51.716;7.016;2023-04-25T16:07:20;12.60;64.40
71837;DHT22;59686;51.716;7.016;2023-04-25T16:09:51;12.70;65.10
71837;DHT22;59686;51.716;7.016;2023-04-25T16:12:16;12.60;65.10
71837;DHT22;59686;51.716;7.016;2023-04-25T16:14:42;12.70;64.30
71837;DHT22;59686;51.716;7.016;2023-04-25T16:17:09;12.80;64.60
71837;DHT22;59686;51.716;7.016;2023-04-25T16:19:34;12.80;64.50
71837;DHT22;59686;51.716;7.016;2023-04-25T16:22:00;12.80;64.00
71837;DHT22;59686;51.716;7.016;2023-04-25T16:24:26;12.70;64.50
71837;DHT22;59686;51.716;7.016;2023-04-25T16:26:52;12.90;66.40
71837;DHT22;59686;51.716;7.016;2023-04-25T16:29:17;13.20;65.10
71837;DHT22;59686;51.716;7.016;2023-04-25T16:31:43;13.40;64.80
71837;DHT22;59686;51.716;7.016;2023-04-25T16:34:11;13.60;64.10
71837;DHT22;59686;51.716;7.016;2023-04-25T16:36:39;13.50;65.00
71837;DHT22;59686;51.716;7.016;2023-04-25T16:39:05;13.40;65.40
71837;DHT22;59686;51.716;7.016;2023-04-25T16:41:33;13.50;64.20
71837;DHT22;59686;51.716;7.016;2023-04-25T16:43:58;13.50;65.20
71837;DHT22;59686;51.716;7.016;2023-04-25T16:46:24;13.40;64.80
71837;DHT22;59686;51.716;7.016;2023-04-25T16:48:51;13.30;64.50
71837;DHT22;59686;51.716;7.016;2023-04-25T16:51:17;13.20;64.50
71837;DHT22;59686;51.716;7.016;2023-04-25T16:53:44;13.20;62.90
71837;DHT22;59686;51.716;7.016;2023-04-25T16:56:11;13.30;63.50
71837;DHT22;59686;51.716;7.016;2023-04-25T16:58:37;13.40;63.00
71837;DHT22;59686;51.716;7.016;2023-04-25T17:01:03;13.50;61.90
71837;DHT22;59686;51.716;7.016;2023-04-25T17:03:35;13.80;60.90
71837;DHT22;59686;51.716;7.016;2023-04-25T17:06:01;13.70;62.30
71837;DHT22;59686;51.716;7.016;2023-04-25T17:08:27;13.60;62.00
71837;DHT22;59686;51.716;7.016;2023-04-25T17:10:53;13.50;61.20
71837;DHT22;59686;51.716;7.016;2023-04-25T17:13:19;13.40;61.30
71837;DHT22;59686;51.716;7.016;2023-04-25T17:15:45;13.40;61.00
71837;DHT22;59686;51.716;7.016;2023-04-25T17:18:11;13.30;60.60
71837;DHT22;59686;51.716;7.016;2023-04-25T17:20:37;13.20;60.70
71837;DHT22;59686;51.716;7.016;2023-04-25T17:23:03;13.30;60.20
71837;DHT22;59686;51.716;7.016;2023-04-25T17:25:29;13.10;60.00
71837;DHT22;59686;51.716;7.016;2023-04-25T17:27:54;13.20;60.40
71837;DHT22;59686;51.716;7.016;2023-04-25T17:30:20;13.00;60.70
71837;DHT22;59686;51.716;7.016;2023-04-25T17:32:47;13.10;60.60
71837;DHT22;59686;51.716;7.016;2023-04-25T17:35:12;13.10;60.70
71837;DHT22;59686;51.716;7.016;2023-04-25T17:37:40;13.20;60.70
71837;DHT22;59686;51.716;7.016;2023-04-25T17:40:07;13.20;61.70
71837;DHT22;59686;51.716;7.016;2023-04-25T17:42:37;13.30;62.30
71837;DHT22;59686;51.716;7.016;2023-04-25T17:45:04;13.30;62.00
71837;DHT22;59686;51.716;7.016;2023-04-25T17:47:30;13.30;61.80
71837;DHT22;59686;51.716;7.016;2023-04-25T17:49:56;13.30;61.30
71837;DHT22;59686;51.716;7.016;2023-04-25T17:52:23;13.30;61.50
71837;DHT22;59686;51.716;7.016;2023-04-25T17:54:48;13.30;61.50
71837;DHT22;59686;51.716;7.016;2023-04-25T17:57:14;13.20;61.20
71837;DHT22;59686;51.716;7.016;2023-04-25T17:59:41;13.20;61.30
71837;DHT22;59686;51.716;7.016;2023-04-25T18:02:07;13.20;61.30
71837;DHT22;59686;51.716;7.016;2023-04-25T18:04:32;13.20;61.60
71837;DHT22;59686;51.716;7.016;2023-04-25T18:07:00;13.20;61.40
71837;DHT22;59686;51.716;7.016;2023-04-25T18:09:26;13.20;61.70
71837;DHT22;59686;51.716;7.016;2023-04-25T18:11:52;13.10;61.10
71837;DHT22;59686;51.716;7.016;2023-04-25T18:14:19;13.10;60.90
71837;DHT22;59686;51.716;7.016;2023-04-25T18:16:47;13.10;60.70
71837;DHT22;59686;51.716;7.016;2023-04-25T18:19:13;13.10;61.10
71837;DHT22;59686;51.716;7.016;2023-04-25T18:21:54;13.10;61.70
71837;DHT22;59686;51.716;7.016;2023-04-25T18:24:24;13.20;61.60
71837;DHT22;59686;51.716;7.016;2023-04-25T18:26:51;13.20;61.10
71837;DHT22;59686;51.716;7.016;2023-04-25T18:29:21;13.20;61.30
71837;DHT22;59686;51.716;7.016;2023-04-25T18:31:47;13.20;61.50
71837;DHT22;59686;51.716;7.016;2023-04-25T18:34:14;13.20;61.80
71837;DHT22;59686;51.716;7.016;2023-04-25T18:36:43;13.20;61.60
71837;DHT22;59686;51.716;7.016;2023-04-25T18:39:09;13.20;62.20
71837;DHT22;59686;51.716;7.016;2023-04-25T18:41:36;13.20;62.60
71837;DHT22;59686;51.716;7.016;2023-04-25T18:44:02;13.10;62.80
71837;DHT22;59686;51.716;7.016;2023-04-25T18:46:30;13.20;63.20
71837;DHT22;59686;51.716;7.016;2023-04-25T18:48:56;13.20;63.30
71837;DHT22;59686;51.716;7.016;2023-04-25T18:51:23;13.10;63.30
71837;DHT22;59686;51.716;7.016;2023-04-25T18:53:57;13.20;63.50
71837;DHT22;59686;51.716;7.016;2023-04-25T18:56:23;13.30;63.40
71837;DHT22;59686;51.716;7.016;2023-04-25T18:58:51;13.10;62.70
71837;DHT22;59686;51.716;7.016;2023-04-25T19:01:18;13.20;63.00
71837;DHT22;59686;51.716;7.016;2023-04-25T19:03:44;13.30;63.00
71837;DHT22;59686;51.716;7.016;2023-04-25T19:06:19;13.10;63.20
71837;DHT22;59686;51.716;7.016;2023-04-25T19:08:47;13.10;62.70
71837;DHT22;59686;51.716;7.016;2023-04-25T19:11:15;13.20;62.70
71837;DHT22;59686;51.716;7.016;2023-04-25T19:13:40;13.20;62.60
71837;DHT22;59686;51.716;7.016;2023-04-25T19:16:06;13.10;62.70
71837;DHT22;59686;51.716;7.016;2023-04-25T19:18:33;13.10;62.80
71837;DHT22;59686;51.716;7.016;2023-04-25T19:20:59;13.10;62.50
71837;DHT22;59686;51.716;7.016;2023-04-25T19:23:26;13.10;62.90
71837;DHT22;59686;51.716;7.016;2023-04-25T19:25:51;13.10;63.20
71837;DHT22;59686;51.716;7.016;2023-04-25T19:28:17;13.20;63.20
71837;DHT22;59686;51.716;7.016;2023-04-25T19:30:45;13.10;63.30
71837;DHT22;59686;51.716;7.016;2023-04-25T19:33:11;13.20;63.30
71837;DHT22;59686;51.716;7.016;2023-04-25T19:35:40;13.10;63.00
71837;DHT22;59686;51.716;7.016;2023-04-25T19:38:08;13.10;63.00
71837;DHT22;59686;51.716;7.016;2023-04-25T19:40:34;13.10;63.00
71837;DHT22;59686;51.716;7.016;2023-04-25T19:43:00;13.10;62.90
71837;DHT22;59686;51.716;7.016;2023-04-25T19:45:26;13.10;63.30
71837;DHT22;59686;51.716;7.016;2023-04-25T19:48:00;13.10;63.60
71837;DHT22;59686;51.716;7.016;2023-04-25T19:50:27;13.10;63.50
71837;DHT22;59686;51.716;7.016;2023-04-25T19:52:53;13.10;63.50
71837;DHT22;59686;51.716;7.016;2023-04-25T19:55:27;13.10;63.50
71837;DHT22;59686;51.716;7.016;2023-04-25T19:57:53;13.10;64.30
71837;DHT22;59686;51.716;7.016;2023-04-25T20:00:18;13.00;63.50
71837;DHT22;59686;51.716;7.016;2023-04-25T20:03:00;13.10;63.70
71837;DHT22;59686;51.716;7.016;2023-04-25T20:05:25;13.10;64.10
71837;DHT22;59686;51.716;7.016;2023-04-25T20:08:00;13.20;64.30
71837;DHT22;59686;51.716;7.016;2023-04-25T20:10:26;13.00;64.30
71837;DHT22;59686;51.716;7.016;2023-04-25T20:12:52;13.10;64.40
71837;DHT22;59686;51.716;7.016;2023-04-25T20:15:27;13.10;64.60
71837;DHT22;59686;51.716;7.016;2023-04-25T20:17:52;13.10;64.70
71837;DHT22;59686;51.716;7.016;2023-04-25T20:20:19;13.00;64.70
71837;DHT22;59686;51.716;7.016;2023-04-25T20:22:46;13.00;64.80
71837;DHT22;59686;51.716;7.016;2023-04-25T20:25:14;13.10;64.90
71837;DHT22;59686;51.716;7.016;2023-04-25T20:27:39;13.00;64.90
71837;DHT22;59686;51.716;7.016;2023-04-25T20:30:13;13.00;65.00
71837;DHT22;59686;51.716;7.016;2023-04-25T20:32:39;13.00;65.20
71837;DHT22;59686;51.716;7.016;2023-04-25T20:35:07;13.00;65.40
71837;DHT22;59686;51.716;7.016;2023-04-25T20:37:36;13.00;65.50
71837;DHT22;59686;51.716;7.016;2023-04-25T20:40:07;13.00;65.60
71837;DHT22;59686;51.716;7.016;2023-04-25T20:42:34;13.00;65.70
71837;DHT22;59686;51.716;7.016;2023-04-25T20:45:01;12.90;65.60
71837;DHT22;59686;51.716;7.016;2023-04-25T20:47:39;13.00;65.90
71837;DHT22;59686;51.716;7.016;2023-04-25T20:50:06;13.10;65.80
71837;DHT22;59686;51.716;7.016;2023-04-25T20:52:32;13.00;66.00
71837;DHT22;59686;51.716;7.016;2023-04-25T20:55:06;12.90;66.00
71837;DHT22;59686;51.716;7.016;2023-04-25T20:57:32;13.00;66.10
71837;DHT22;59686;51.716;7.016;2023-04-25T20:59:58;13.00;66.30
71837;DHT22;59686;51.716;7.016;2023-04-25T21:02:23;13.00;66.20
71837;DHT22;59686;51.716;7.016;2023-04-25T21:04:49;12.90;66.20
71837;DHT22;59686;51.716;7.016;2023-04-25T21:07:16;12.90;66.30
71837;DHT22;59686;51.716;7.016;2023-04-25T21:09:41;12.90;66.40
71837;DHT22;59686;51.716;7.016;2023-04-25T21:12:09;12.90;66.40
71837;DHT22;59686;51.716;7.016;2023-04-25T21:14:35;12.90;66.40
71837;DHT22;59686;51.716;7.016;2023-04-25T21:17:02;12.90;66.50
71837;DHT22;59686;51.716;7.016;2023-04-25T21:19:28;12.90;66.50
71837;DHT22;59686;51.716;7.016;2023-04-25T21:21:54;12.80;66.50
71837;DHT22;59686;51.716;7.016;2023-04-25T21:24:20;13.00;66.80
71837;DHT22;59686;51.716;7.016;2023-04-25T21:26:46;12.90;66.70
71837;DHT22;59686;51.716;7.016;2023-04-25T21:29:11;12.90;66.90
71837;DHT22;59686;51.716;7.016;2023-04-25T21:31:38;12.90;66.90
71837;DHT22;59686;51.716;7.016;2023-04-25T21:34:04;12.80;66.70
71837;DHT22;59686;51.716;7.016;2023-04-25T21:36:31;12.80;66.90
71837;DHT22;59686;51.716;7.016;2023-04-25T21:38:58;12.90;67.00
71837;DHT22;59686;51.716;7.016;2023-04-25T21:41:24;12.80;67.00
71837;DHT22;59686;51.716;7.016;2023-04-25T21:43:50;12.90;67.20
71837;DHT22;59686;51.716;7.016;2023-04-25T21:46:16;12.90;67.30
71837;DHT22;59686;51.716;7.016;2023-04-25T21:48:42;12.80;67.10
71837;DHT22;59686;51.716;7.016;2023-04-25T21:51:07;12.80;67.20
71837;DHT22;59686;51.716;7.016;2023-04-25T21:53:33;12.80;67.30
71837;DHT22;59686;51.716;7.016;2023-04-25T21:55:58;12.80;67.40
71837;DHT22;59686;51.716;7.016;2023-04-25T21:58:24;12.70;67.20
71837;DHT22;59686;51.716;7.016;2023-04-25T22:00:58;12.70;67.10